Time;durP1;ratioP1;P1;durP2;ratioP2;P2;SDS_P1;SDS_P2;PMS_P1;PMS_P2;Temp;Humidity;BMP_temperature;BMP_pressure;BME280_temperature;BME280_humidity;BME280_pressure;Samples;Min_cycle;Max_cycle;Signal;HPM_P1;HPM_P2
2023/12/14 00:01:51;;;;;;;6.45;3.33;;;4.80;99.90;;;;;;5049390;28;20037;-71
2023/12/14 00:04:17;;;;;;;7.20;3.40;;;4.70;99.90;;;;;;5050190;28;20467;-68
2023/12/14 00:06:42;;;;;;;7.30;3.58;;;4.70;99.90;;;;;;5068801;28;20025;-67
2023/12/14 00:09:08;;;;;;;9.05;3.50;;;4.70;99.90;;;;;;5063227;28;20119;-67
2023/12/14 00:11:38;;;;;;;5.32;2.83;;;4.70;99.90;;;;;;5067924;28;20374;-67
2023/12/14 00:14:05;;;;;;;6.38;3.05;;;4.70;99.90;;;;;;5067947;28;20033;-66
2023/12/14 00:16:30;;;;;;;7.10;3.60;;;4.70;99.90;;;;;;5057398;28;20032;-69
2023/12/14 00:18:56;;;;;;;6.80;3.47;;;4.70;99.90;;;;;;5064585;28;20619;-67
2023/12/14 00:21:21;;;;;;;8.55;3.60;;;4.70;99.90;;;;;;5056802;28;20033;-68
2023/12/14 00:23:47;;;;;;;7.47;3.58;;;4.60;99.90;;;;;;5059235;28;20372;-68
2023/12/14 00:26:13;;;;;;;8.20;4.30;;;4.60;99.90;;;;;;5066948;28;20074;-68
2023/12/14 00:28:38;;;;;;;7.82;3.80;;;4.70;99.90;;;;;;5063668;28;20099;-69
2023/12/14 00:31:04;;;;;;;9.02;4.30;;;4.60;99.90;;;;;;5065262;28;20032;-66
2023/12/14 00:33:30;;;;;;;9.50;4.45;;;4.60;99.90;;;;;;5047059;28;20025;-69
2023/12/14 00:35:56;;;;;;;9.18;4.32;;;4.70;99.90;;;;;;5047313;28;20525;-67
2023/12/14 00:38:21;;;;;;;8.35;4.40;;;4.70;99.90;;;;;;5051293;28;20136;-68
2023/12/14 00:40:47;;;;;;;10.00;4.78;;;4.70;99.90;;;;;;5071594;28;20493;-69
2023/12/14 00:43:12;;;;;;;9.98;4.90;;;4.70;99.90;;;;;;5071132;28;20024;-67
2023/12/14 00:45:39;;;;;;;10.90;4.85;;;4.70;99.90;;;;;;5069118;28;20485;-66
2023/12/14 00:48:05;;;;;;;10.43;4.93;;;4.70;99.90;;;;;;5068725;28;20109;-68
2023/12/14 00:50:30;;;;;;;10.32;5.20;;;4.60;99.90;;;;;;5068517;28;20467;-68
2023/12/14 00:52:56;;;;;;;8.55;4.28;;;4.60;99.90;;;;;;5067442;28;20029;-67
2023/12/14 00:55:22;;;;;;;10.40;5.40;;;4.70;99.90;;;;;;5066882;28;20060;-68
2023/12/14 00:57:47;;;;;;;13.20;5.85;;;4.60;99.90;;;;;;5071513;28;20048;-68
2023/12/14 01:00:13;;;;;;;12.05;5.63;;;4.70;99.90;;;;;;5070186;28;20515;-68
2023/12/14 01:02:39;;;;;;;14.07;5.82;;;4.60;99.90;;;;;;5071314;28;20071;-67
2023/12/14 01:05:05;;;;;;;17.75;6.15;;;4.70;99.90;;;;;;5071150;28;20028;-66
2023/12/14 01:07:30;;;;;;;14.70;6.07;;;4.70;99.90;;;;;;5054561;28;20079;-68
2023/12/14 01:09:56;;;;;;;13.35;5.88;;;4.70;99.90;;;;;;5055186;28;20051;-68
2023/12/14 01:12:22;;;;;;;13.68;6.47;;;4.70;99.90;;;;;;5069256;28;20041;-69
2023/12/14 01:14:47;;;;;;;13.88;6.25;;;4.70;99.90;;;;;;5058033;28;20089;-68
2023/12/14 01:17:13;;;;;;;11.50;5.32;;;4.70;99.90;;;;;;5070392;28;20673;-67
2023/12/14 01:19:41;;;;;;;15.20;6.22;;;4.70;99.90;;;;;;5060635;28;20116;-66
2023/12/14 01:22:07;;;;;;;15.75;6.55;;;4.70;99.90;;;;;;5050818;28;20029;-68
2023/12/14 01:24:33;;;;;;;14.65;6.53;;;4.70;99.90;;;;;;5051320;28;20037;-68
2023/12/14 01:26:58;;;;;;;14.73;6.88;;;4.70;99.90;;;;;;5052115;28;20036;-67
2023/12/14 01:29:24;;;;;;;24.10;8.05;;;4.70;99.90;;;;;;5055165;28;20029;-66
2023/12/14 01:31:50;;;;;;;22.45;7.40;;;4.70;99.90;;;;;;5051261;28;20094;-68
2023/12/14 01:34:15;;;;;;;19.58;7.38;;;4.70;99.90;;;;;;5066912;28;20212;-68
2023/12/14 01:36:41;;;;;;;18.10;7.30;;;4.70;99.90;;;;;;5064449;28;20047;-68
2023/12/14 01:39:07;;;;;;;19.25;7.45;;;4.70;99.90;;;;;;5050388;28;20072;-68
2023/12/14 01:41:33;;;;;;;19.88;8.10;;;4.70;99.90;;;;;;5049768;28;20432;-66
2023/12/14 01:43:59;;;;;;;25.55;8.10;;;4.70;99.90;;;;;;5058246;28;20104;-67
2023/12/14 01:46:24;;;;;;;17.25;7.75;;;4.70;99.90;;;;;;5070866;28;20036;-66
2023/12/14 01:48:51;;;;;;;14.45;6.50;;;4.80;99.90;;;;;;5069061;28;20048;-67
2023/12/14 01:51:17;;;;;;;16.42;7.18;;;4.70;99.90;;;;;;5054227;28;20540;-68
2023/12/14 01:53:43;;;;;;;15.95;7.72;;;4.70;99.90;;;;;;5070076;28;20494;-66
2023/12/14 01:56:09;;;;;;;16.73;7.32;;;4.70;99.90;;;;;;5065363;28;20430;-67
2023/12/14 01:58:35;;;;;;;19.33;7.30;;;4.70;99.90;;;;;;5056348;28;20052;-66
2023/12/14 02:01:15;;;;;;;17.85;8.07;;;4.80;99.90;;;;;;5053283;28;20033;-69
2023/12/14 02:03:48;;;;;;;19.45;7.50;;;4.70;99.90;;;;;;5068788;28;20032;-68
2023/12/14 02:06:15;;;;;;;18.13;7.07;;;4.80;99.90;;;;;;5067961;28;20131;-66
2023/12/14 02:08:40;;;;;;;17.80;7.18;;;4.80;99.90;;;;;;5059767;28;20085;-68
2023/12/14 02:11:06;;;;;;;15.85;7.38;;;4.80;99.90;;;;;;5057521;28;20781;-66
2023/12/14 02:13:33;;;;;;;17.08;6.63;;;4.80;99.90;;;;;;5050439;28;20042;-68
2023/12/14 02:15:58;;;;;;;17.58;6.72;;;4.80;99.90;;;;;;5050257;28;20062;-71
2023/12/14 02:18:24;;;;;;;14.95;7.20;;;4.80;99.90;;;;;;5050158;28;20063;-67
2023/12/14 02:20:50;;;;;;;13.45;6.18;;;4.80;99.90;;;;;;5054329;28;20040;-67
2023/12/14 02:23:15;;;;;;;12.60;6.07;;;4.80;99.90;;;;;;5049604;28;20033;-68
2023/12/14 02:25:41;;;;;;;13.95;5.57;;;4.80;99.90;;;;;;5059930;28;20344;-68
2023/12/14 02:28:06;;;;;;;12.88;5.82;;;4.80;99.90;;;;;;5068789;28;20032;-67
2023/12/14 02:30:32;;;;;;;13.88;5.95;;;4.80;99.90;;;;;;5052760;28;20124;-67
2023/12/14 02:32:58;;;;;;;12.52;5.43;;;4.80;99.90;;;;;;5061753;28;20028;-70
2023/12/14 02:35:23;;;;;;;14.38;5.53;;;4.80;99.90;;;;;;5068317;28;20033;-67
2023/12/14 02:37:49;;;;;;;14.38;5.97;;;4.80;99.90;;;;;;5056786;28;20479;-68
2023/12/14 02:40:14;;;;;;;13.88;5.78;;;4.80;99.90;;;;;;5065615;28;20424;-65
2023/12/14 02:42:40;;;;;;;15.50;6.70;;;4.80;99.90;;;;;;5063735;28;20024;-68
2023/12/14 02:45:07;;;;;;;14.93;6.55;;;4.80;99.90;;;;;;5067901;28;20710;-68
2023/12/14 02:47:33;;;;;;;12.75;5.80;;;4.80;99.90;;;;;;5054916;28;20033;-68
2023/12/14 02:49:58;;;;;;;14.50;6.07;;;4.90;99.90;;;;;;5063163;28;20086;-70
2023/12/14 02:52:24;;;;;;;15.32;5.88;;;4.90;99.90;;;;;;5067968;28;20031;-67
2023/12/14 02:54:50;;;;;;;13.15;5.82;;;5.00;99.90;;;;;;5069723;28;20024;-68
2023/12/14 02:57:15;;;;;;;15.23;7.05;;;5.00;99.90;;;;;;5064809;28;20032;-68
2023/12/14 02:59:41;;;;;;;14.32;6.95;;;5.00;99.90;;;;;;5067373;28;20557;-69
2023/12/14 03:02:07;;;;;;;14.43;6.68;;;5.10;99.90;;;;;;5058901;28;20045;-69
2023/12/14 03:04:32;;;;;;;14.55;6.70;;;5.10;99.90;;;;;;5057034;28;20027;-68
2023/12/14 03:07:02;;;;;;;17.88;7.75;;;5.10;99.90;;;;;;5060106;28;20514;-71
2023/12/14 03:09:30;;;;;;;17.58;8.13;;;5.20;99.90;;;;;;5069211;28;20056;-69
2023/12/14 03:11:56;;;;;;;19.65;8.02;;;5.10;99.90;;;;;;5069151;28;20427;-68
2023/12/14 03:14:22;;;;;;;15.43;7.47;;;5.10;99.90;;;;;;5061076;28;20060;-68
2023/12/14 03:16:48;;;;;;;18.58;6.57;;;5.10;99.90;;;;;;5057393;28;20029;-68
2023/12/14 03:19:15;;;;;;;25.52;7.57;;;5.10;99.90;;;;;;5050592;28;20456;-66
2023/12/14 03:21:41;;;;;;;17.25;7.20;;;5.10;99.90;;;;;;5051070;28;20425;-69
2023/12/14 03:24:07;;;;;;;16.02;7.50;;;5.10;99.90;;;;;;5062195;28;20037;-69
2023/12/14 03:26:33;;;;;;;15.20;6.72;;;5.10;99.90;;;;;;5058037;28;20024;-68
2023/12/14 03:28:58;;;;;;;17.23;7.18;;;5.10;99.90;;;;;;5068505;28;20515;-66
2023/12/14 03:31:24;;;;;;;14.10;6.57;;;5.00;99.90;;;;;;5063602;28;20386;-67
2023/12/14 03:33:49;;;;;;;13.52;6.75;;;5.00;99.90;;;;;;5066121;28;20032;-68
2023/12/14 03:36:15;;;;;;;13.88;6.63;;;5.00;99.90;;;;;;5056321;28;20095;-68
2023/12/14 03:38:41;;;;;;;15.77;6.88;;;5.10;99.90;;;;;;5066330;28;20060;-68
2023/12/14 03:41:07;;;;;;;15.80;7.78;;;5.10;99.90;;;;;;5061953;28;20068;-68
2023/12/14 03:43:32;;;;;;;17.55;6.60;;;5.10;99.90;;;;;;5058537;28;20040;-68
2023/12/14 03:45:58;;;;;;;20.40;7.45;;;5.10;99.90;;;;;;5068850;28;20371;-68
2023/12/14 03:48:23;;;;;;;16.63;7.00;;;5.20;99.90;;;;;;5050663;28;20166;-67
2023/12/14 03:50:50;;;;;;;14.30;6.60;;;5.20;99.90;;;;;;5065053;28;20110;-68
2023/12/14 03:53:15;;;;;;;12.85;6.18;;;5.20;99.90;;;;;;5052213;28;20055;-67
2023/12/14 03:55:41;;;;;;;15.57;6.78;;;5.20;99.90;;;;;;5068210;28;20036;-66
2023/12/14 03:58:07;;;;;;;15.10;6.78;;;5.30;99.90;;;;;;5053468;28;20041;-68
2023/12/14 04:00:32;;;;;;;14.60;6.82;;;5.30;99.90;;;;;;5063180;28;20123;-68
2023/12/14 04:02:58;;;;;;;13.73;6.35;;;5.30;99.90;;;;;;5065703;28;20032;-68
2023/12/14 04:05:24;;;;;;;13.45;6.25;;;5.30;99.90;;;;;;5061416;28;20029;-68
2023/12/14 04:07:49;;;;;;;13.95;6.72;;;5.30;99.90;;;;;;5061554;28;20033;-68
2023/12/14 04:10:15;;;;;;;19.02;7.30;;;5.30;99.90;;;;;;5052407;28;20091;-67
2023/12/14 04:12:41;;;;;;;14.65;6.70;;;5.30;99.90;;;;;;5049175;28;20028;-68
2023/12/14 04:15:09;;;;;;;15.68;6.78;;;5.30;99.90;;;;;;5052670;28;20376;-70
2023/12/14 04:17:35;;;;;;;14.95;6.93;;;5.30;99.90;;;;;;5068131;28;20039;-67
2023/12/14 04:20:00;;;;;;;13.52;6.38;;;5.40;99.90;;;;;;5058437;28;20447;-68
2023/12/14 04:22:26;;;;;;;17.95;7.38;;;5.40;99.90;;;;;;5047606;28;20025;-67
2023/12/14 04:24:52;;;;;;;17.63;7.00;;;5.40;99.90;;;;;;5064553;28;20051;-68
2023/12/14 04:27:18;;;;;;;14.10;6.90;;;5.40;99.90;;;;;;5057905;28;20028;-68
2023/12/14 04:29:44;;;;;;;15.32;7.10;;;5.30;99.90;;;;;;5067874;28;20031;-68
2023/12/14 04:32:10;;;;;;;16.00;6.88;;;5.30;99.90;;;;;;5067562;28;20029;-68
2023/12/14 04:34:35;;;;;;;15.75;7.50;;;5.30;99.90;;;;;;5060054;28;20106;-67
2023/12/14 04:37:02;;;;;;;17.95;8.10;;;5.20;99.90;;;;;;5060264;28;20035;-68
2023/12/14 04:39:28;;;;;;;15.85;7.25;;;5.20;99.90;;;;;;5067215;28;20418;-68
2023/12/14 04:41:54;;;;;;;19.88;8.98;;;5.20;99.90;;;;;;5067767;28;20040;-67
2023/12/14 04:44:21;;;;;;;22.48;9.10;;;5.20;99.90;;;;;;5066628;28;20032;-68
2023/12/14 04:46:50;;;;;;;26.33;9.18;;;5.10;99.90;;;;;;5056724;28;20025;-68
2023/12/14 04:49:16;;;;;;;24.52;9.77;;;5.10;99.90;;;;;;5067495;28;20029;-68
2023/12/14 04:51:41;;;;;;;23.50;10.20;;;5.10;99.90;;;;;;5062139;28;20825;-68
2023/12/14 04:54:08;;;;;;;24.88;9.60;;;5.00;99.90;;;;;;5055800;28;20121;-71
2023/12/14 04:56:33;;;;;;;21.63;10.23;;;5.00;99.90;;;;;;5051181;28;20021;-67
2023/12/14 04:58:59;;;;;;;24.75;9.90;;;5.00;99.90;;;;;;5047789;28;20057;-69
2023/12/14 05:01:27;;;;;;;27.85;10.25;;;5.00;99.90;;;;;;5041613;28;20384;-68
2023/12/14 05:03:53;;;;;;;24.20;9.50;;;5.00;99.90;;;;;;5052408;28;20033;-68
2023/12/14 05:06:19;;;;;;;24.20;9.93;;;5.00;99.90;;;;;;5047451;28;20044;-68
2023/12/14 05:08:45;;;;;;;33.05;9.90;;;5.10;99.90;;;;;;5061107;28;20036;-65
2023/12/14 05:11:13;;;;;;;22.80;9.57;;;5.10;99.90;;;;;;5065668;28;20124;-68
2023/12/14 05:13:38;;;;;;;22.23;9.63;;;5.10;99.90;;;;;;5067461;28;20028;-67
2023/12/14 05:16:04;;;;;;;21.73;9.55;;;5.10;99.90;;;;;;5067752;28;20039;-66
2023/12/14 05:18:30;;;;;;;27.85;9.10;;;5.10;99.90;;;;;;5067174;28;20689;-67
2023/12/14 05:20:56;;;;;;;19.75;8.52;;;5.10;99.90;;;;;;5059844;28;20029;-69
2023/12/14 05:23:21;;;;;;;20.98;8.80;;;5.10;99.90;;;;;;5060601;28;20469;-69
2023/12/14 05:25:47;;;;;;;20.08;8.85;;;5.10;99.90;;;;;;5071418;28;20460;-69
2023/12/14 05:28:13;;;;;;;18.98;8.95;;;5.10;99.90;;;;;;5068912;28;20037;-69
2023/12/14 05:30:38;;;;;;;20.48;8.90;;;5.10;99.90;;;;;;5066916;28;20029;-69
2023/12/14 05:33:04;;;;;;;21.00;8.18;;;5.20;99.90;;;;;;5063768;28;20074;-67
2023/12/14 05:35:30;;;;;;;19.52;8.65;;;5.20;99.90;;;;;;5070563;28;20025;-68
2023/12/14 05:37:56;;;;;;;20.50;8.80;;;5.20;99.90;;;;;;5058264;28;20069;-67
2023/12/14 05:40:21;;;;;;;19.42;8.77;;;5.20;99.90;;;;;;5070358;28;20037;-68
2023/12/14 05:42:47;;;;;;;23.50;8.75;;;5.20;99.90;;;;;;5062488;28;20477;-70
2023/12/14 05:45:13;;;;;;;20.65;9.45;;;5.20;99.90;;;;;;5069602;28;20028;-68
2023/12/14 05:47:39;;;;;;;20.25;9.02;;;5.20;99.90;;;;;;5071081;28;20035;-69
2023/12/14 05:50:05;;;;;;;23.35;9.57;;;5.20;99.90;;;;;;5069465;28;20108;-69
2023/12/14 05:52:31;;;;;;;23.10;9.30;;;5.20;99.90;;;;;;5065753;28;20158;-69
2023/12/14 05:54:56;;;;;;;20.27;9.25;;;5.20;99.90;;;;;;5062459;28;20036;-68
2023/12/14 05:57:22;;;;;;;18.63;9.15;;;5.20;99.90;;;;;;5064808;28;20033;-69
2023/12/14 05:59:49;;;;;;;21.45;9.35;;;5.20;99.90;;;;;;5065993;28;20056;-70
2023/12/14 06:02:15;;;;;;;22.95;9.73;;;5.20;99.90;;;;;;5066362;28;20032;-68
2023/12/14 06:04:41;;;;;;;25.35;9.77;;;5.20;99.90;;;;;;5067078;28;20039;-69
2023/12/14 06:07:06;;;;;;;25.63;10.70;;;5.20;99.90;;;;;;5069809;28;20032;-69
2023/12/14 06:09:34;;;;;;;21.38;9.95;;;5.20;99.90;;;;;;5069825;28;20025;-69
2023/12/14 06:12:03;;;;;;;23.77;10.63;;;5.20;99.90;;;;;;5067639;28;20024;-70
2023/12/14 06:14:29;;;;;;;22.55;9.95;;;5.20;99.90;;;;;;5056281;28;20021;-69
2023/12/14 06:16:55;;;;;;;25.85;10.88;;;5.20;99.90;;;;;;5058464;28;20032;-69
2023/12/14 06:19:21;;;;;;;23.88;10.80;;;5.20;99.90;;;;;;5063475;28;20037;-69
2023/12/14 06:21:47;;;;;;;28.30;10.68;;;5.20;99.90;;;;;;5063909;28;20094;-67
2023/12/14 06:24:12;;;;;;;27.73;11.55;;;5.20;99.90;;;;;;5053443;28;20040;-73
2023/12/14 06:26:45;;;;;;;24.92;10.80;;;5.20;99.90;;;;;;5065882;28;20021;-70
2023/12/14 06:29:11;;;;;;;26.85;11.13;;;5.20;99.90;;;;;;5062914;28;20094;-74
2023/12/14 06:31:40;;;;;;;31.73;10.93;;;5.30;99.90;;;;;;5049817;28;20044;-67
2023/12/14 06:34:06;;;;;;;30.10;11.35;;;5.40;99.90;;;;;;5050097;28;20029;-69
2023/12/14 06:36:32;;;;;;;27.38;11.45;;;5.30;99.90;;;;;;5048276;28;20334;-70
2023/12/14 06:38:59;;;;;;;29.17;12.20;;;5.30;99.90;;;;;;5049875;28;20029;-70
2023/12/14 06:41:26;;;;;;;26.23;11.10;;;5.30;99.90;;;;;;5049204;28;20106;-70
2023/12/14 06:43:52;;;;;;;23.70;10.80;;;5.20;99.90;;;;;;5062328;28;20529;-71
2023/12/14 06:46:18;;;;;;;26.23;10.80;;;5.30;99.90;;;;;;5049732;28;20458;-69
2023/12/14 06:48:45;;;;;;;26.60;10.52;;;5.20;99.90;;;;;;5049543;28;20108;-68
2023/12/14 06:51:11;;;;;;;24.27;10.57;;;5.20;99.90;;;;;;5049641;28;20025;-68
2023/12/14 06:53:41;;;;;;;27.13;11.70;;;5.20;99.90;;;;;;5049223;28;20419;-68
2023/12/14 06:56:10;;;;;;;24.60;11.15;;;5.20;99.90;;;;;;5054761;28;20486;-68
2023/12/14 06:58:39;;;;;;;27.48;10.75;;;5.20;99.90;;;;;;5067783;28;20056;-67
2023/12/14 07:01:05;;;;;;;24.33;11.38;;;5.20;99.90;;;;;;5067892;28;20115;-68
2023/12/14 07:03:31;;;;;;;25.80;11.20;;;5.20;99.90;;;;;;5048739;28;20531;-70
2023/12/14 07:05:57;;;;;;;28.20;11.82;;;5.20;99.90;;;;;;5053938;28;20032;-69
2023/12/14 07:08:24;;;;;;;27.80;11.80;;;5.20;99.90;;;;;;5068803;28;20031;-70
2023/12/14 07:10:49;;;;;;;29.80;12.82;;;5.20;99.90;;;;;;5067954;28;20021;-69
2023/12/14 07:13:15;;;;;;;26.50;12.10;;;5.20;99.90;;;;;;5067420;28;20047;-70
2023/12/14 07:15:40;;;;;;;25.13;10.95;;;5.30;99.90;;;;;;5057585;28;20501;-68
2023/12/14 07:18:06;;;;;;;29.70;11.45;;;5.30;99.90;;;;;;5049205;28;20025;-67
2023/12/14 07:20:32;;;;;;;28.73;12.55;;;5.30;99.90;;;;;;5048126;28;20403;-67
2023/12/14 07:22:57;;;;;;;29.42;12.52;;;5.30;99.90;;;;;;5048951;28;20029;-68
2023/12/14 07:25:23;;;;;;;32.45;13.80;;;5.20;99.90;;;;;;5048170;28;20025;-68
2023/12/14 07:27:49;;;;;;;32.97;12.98;;;5.20;99.90;;;;;;5049142;28;20040;-69
2023/12/14 07:30:14;;;;;;;36.25;14.43;;;5.20;99.90;;;;;;5050282;28;20379;-73
2023/12/14 07:32:40;;;;;;;36.22;15.10;;;5.20;99.90;;;;;;5067706;28;20105;-68
2023/12/14 07:35:06;;;;;;;30.40;13.00;;;5.10;99.90;;;;;;5068095;28;20413;-71
2023/12/14 07:37:32;;;;;;;33.53;13.85;;;5.20;99.90;;;;;;5067988;28;20032;-70
2023/12/14 07:40:01;;;;;;;34.05;14.30;;;5.20;99.90;;;;;;5068764;28;20032;-71
2023/12/14 07:42:26;;;;;;;37.35;14.52;;;5.20;99.90;;;;;;5065996;28;20025;-70
2023/12/14 07:44:52;;;;;;;38.85;14.15;;;5.30;99.90;;;;;;5056316;28;20048;-72
2023/12/14 07:47:18;;;;;;;33.92;13.77;;;5.30;99.90;;;;;;5050302;28;20031;-73
2023/12/14 07:49:44;;;;;;;38.72;14.05;;;5.30;99.90;;;;;;5065333;28;20119;-69
2023/12/14 07:52:09;;;;;;;30.27;12.85;;;5.20;99.90;;;;;;5067914;28;20031;-67
2023/12/14 07:54:36;;;;;;;39.53;14.63;;;5.30;99.90;;;;;;5067905;28;20028;-69
2023/12/14 07:57:02;;;;;;;33.70;14.43;;;5.30;99.90;;;;;;5067962;28;20039;-72
2023/12/14 07:59:29;;;;;;;37.35;15.50;;;5.30;99.90;;;;;;5065866;28;20143;-70
2023/12/14 08:01:55;;;;;;;41.78;16.05;;;5.30;99.90;;;;;;5068660;28;20025;-69
2023/12/14 08:04:20;;;;;;;44.15;15.98;;;5.30;99.90;;;;;;5063764;28;20479;-70
2023/12/14 08:06:46;;;;;;;37.70;15.02;;;5.40;99.90;;;;;;5053932;28;20067;-69
2023/12/14 08:09:12;;;;;;;41.80;16.13;;;5.40;99.90;;;;;;5057866;28;20044;-70
2023/12/14 08:11:37;;;;;;;43.10;15.52;;;5.40;99.90;;;;;;5062760;28;20698;-69
2023/12/14 08:14:03;;;;;;;36.20;15.25;;;5.50;99.90;;;;;;5068559;28;20028;-69
2023/12/14 08:16:29;;;;;;;36.17;15.48;;;5.50;99.90;;;;;;5051799;28;20588;-71
2023/12/14 08:18:54;;;;;;;39.55;15.30;;;5.50;99.90;;;;;;5047044;28;20056;-70
2023/12/14 08:21:20;;;;;;;35.33;13.88;;;5.50;99.90;;;;;;5058582;28;20113;-75
2023/12/14 08:23:45;;;;;;;38.47;15.52;;;5.50;99.90;;;;;;5065809;28;20115;-71
2023/12/14 08:26:12;;;;;;;43.88;17.13;;;5.50;99.90;;;;;;5058124;28;20106;-70
2023/12/14 08:28:39;;;;;;;39.13;15.70;;;5.50;99.90;;;;;;5048530;28;20025;-69
2023/12/14 08:31:05;;;;;;;37.92;15.70;;;5.50;99.90;;;;;;5064463;28;20043;-69
2023/12/14 08:33:30;;;;;;;42.20;15.88;;;5.50;99.90;;;;;;5065995;28;20032;-70
2023/12/14 08:35:56;;;;;;;38.78;15.32;;;5.50;99.90;;;;;;5053579;28;20110;-71
2023/12/14 08:38:22;;;;;;;34.85;14.88;;;5.50;99.90;;;;;;5047916;28;20115;-72
2023/12/14 08:40:48;;;;;;;37.80;15.63;;;5.60;99.90;;;;;;5048370;28;20119;-71
2023/12/14 08:43:14;;;;;;;46.15;15.63;;;5.60;99.90;;;;;;5065832;28;20028;-69
2023/12/14 08:45:39;;;;;;;36.63;13.98;;;5.60;99.90;;;;;;5065430;28;20028;-70
2023/12/14 08:48:06;;;;;;;35.40;14.63;;;5.70;99.90;;;;;;5068124;28;20036;-68
2023/12/14 08:50:32;;;;;;;39.17;15.05;;;5.70;99.90;;;;;;5065453;28;20056;-68
2023/12/14 08:53:00;;;;;;;42.00;16.05;;;5.80;99.90;;;;;;5060273;28;20065;-68
2023/12/14 08:55:26;;;;;;;41.95;15.10;;;5.80;99.90;;;;;;5063416;28;20036;-69
2023/12/14 08:57:52;;;;;;;39.70;15.18;;;5.80;99.90;;;;;;5047947;28;20033;-66
2023/12/14 09:00:18;;;;;;;39.45;16.52;;;5.80;99.90;;;;;;5051161;28;20480;-69
2023/12/14 09:02:45;;;;;;;44.65;17.67;;;5.80;99.90;;;;;;5050774;28;20029;-66
2023/12/14 09:05:15;;;;;;;42.88;17.30;;;5.80;99.90;;;;;;5051762;28;20124;-68
2023/12/14 09:07:41;;;;;;;40.08;15.65;;;5.80;99.90;;;;;;5051268;28;20668;-72
2023/12/14 09:10:07;;;;;;;41.35;16.05;;;5.80;99.90;;;;;;5055484;28;20033;-72
2023/12/14 09:12:34;;;;;;;43.53;17.33;;;5.90;99.90;;;;;;5070978;28;20506;-69
2023/12/14 09:15:00;;;;;;;37.90;15.85;;;5.90;99.90;;;;;;5071630;28;20027;-69
2023/12/14 09:17:26;;;;;;;42.95;16.17;;;5.90;99.90;;;;;;5053431;28;20036;-69
2023/12/14 09:19:52;;;;;;;47.35;17.25;;;6.00;99.90;;;;;;5051449;28;20037;-69
2023/12/14 09:22:17;;;;;;;44.17;16.65;;;6.00;99.90;;;;;;5070318;28;20505;-69
2023/12/14 09:24:43;;;;;;;42.13;16.25;;;6.00;99.90;;;;;;5066492;28;20582;-69
2023/12/14 09:27:09;;;;;;;41.78;17.05;;;6.00;99.90;;;;;;5060371;28;20104;-69
2023/12/14 09:29:34;;;;;;;43.35;16.42;;;6.10;99.90;;;;;;5067187;28;20056;-66
2023/12/14 09:32:00;;;;;;;39.38;16.27;;;6.10;99.90;;;;;;5069632;28;20553;-70
2023/12/14 09:34:26;;;;;;;43.13;16.17;;;6.20;99.90;;;;;;5070749;28;20035;-68
2023/12/14 09:36:52;;;;;;;43.83;17.23;;;6.20;99.90;;;;;;5061374;28;20029;-67
2023/12/14 09:39:19;;;;;;;39.67;16.50;;;6.20;99.90;;;;;;5069487;28;20498;-69
2023/12/14 09:41:46;;;;;;;45.83;17.33;;;6.20;99.90;;;;;;5070014;28;20024;-65
2023/12/14 09:44:12;;;;;;;45.70;17.75;;;6.30;99.90;;;;;;5071452;28;20135;-68
2023/12/14 09:46:38;;;;;;;44.42;17.75;;;6.30;99.90;;;;;;5053222;28;20116;-67
2023/12/14 09:49:05;;;;;;;44.33;17.52;;;6.30;99.90;;;;;;5051432;28;20040;-67
2023/12/14 09:51:30;;;;;;;48.85;17.20;;;6.30;99.90;;;;;;5064150;28;20479;-68
2023/12/14 09:53:59;;;;;;;43.92;16.77;;;6.30;99.90;;;;;;5069619;28;20029;-68
2023/12/14 09:56:26;;;;;;;40.33;17.02;;;6.30;99.90;;;;;;5056046;28;20036;-72
2023/12/14 09:58:52;;;;;;;37.50;14.32;;;6.30;99.90;;;;;;5053641;28;20048;-70
2023/12/14 10:01:26;;;;;;;37.17;14.18;;;6.40;99.90;;;;;;5056669;28;20029;-68
2023/12/14 10:04:09;;;;;;;36.30;13.82;;;6.40;99.90;;;;;;5050822;28;20669;-65
2023/12/14 10:06:34;;;;;;;38.00;14.70;;;6.40;99.90;;;;;;5065401;28;20032;-68
2023/12/14 10:09:00;;;;;;;38.20;14.60;;;6.30;99.90;;;;;;5069069;28;20111;-67
2023/12/14 10:11:25;;;;;;;37.60;14.10;;;6.30;99.90;;;;;;5068497;28;20044;-71
2023/12/14 10:13:51;;;;;;;40.20;14.75;;;6.30;99.90;;;;;;5069882;28;20056;-70
2023/12/14 10:16:33;;;;;;;38.95;14.90;;;6.40;99.90;;;;;;5058414;28;20403;-69
2023/12/14 10:18:59;;;;;;;42.53;14.93;;;6.40;99.90;;;;;;5063439;28;20068;-69
2023/12/14 10:21:28;;;;;;;34.00;13.85;;;6.40;99.90;;;;;;5070010;28;20020;-71
2023/12/14 10:23:58;;;;;;;33.88;13.32;;;6.50;99.90;;;;;;5067279;28;20037;-66
2023/12/14 10:26:25;;;;;;;36.10;14.05;;;6.50;99.90;;;;;;5059106;28;20079;-68
2023/12/14 10:28:51;;;;;;;34.92;14.02;;;6.50;99.90;;;;;;5050403;28;20635;-68
2023/12/14 10:31:19;;;;;;;32.13;12.82;;;6.60;99.90;;;;;;5050162;28;20033;-68
2023/12/14 10:33:45;;;;;;;30.60;13.32;;;6.70;99.90;;;;;;5064944;28;20040;-68
2023/12/14 10:36:17;;;;;;;37.15;13.95;;;6.70;99.90;;;;;;5068385;28;20032;-69
2023/12/14 10:38:45;;;;;;;34.42;14.60;;;6.70;99.90;;;;;;5068832;28;20032;-69
2023/12/14 10:41:13;;;;;;;35.35;13.63;;;6.70;99.90;;;;;;5068650;28;20040;-70
2023/12/14 10:43:41;;;;;;;35.17;13.70;;;6.70;99.90;;;;;;5063268;28;20028;-69
2023/12/14 10:46:09;;;;;;;32.92;13.00;;;6.80;99.90;;;;;;5069437;28;20558;-68
2023/12/14 10:48:37;;;;;;;37.20;13.80;;;6.70;99.90;;;;;;5068888;28;20123;-68
2023/12/14 10:51:05;;;;;;;35.10;13.57;;;6.80;99.90;;;;;;5068577;28;20116;-70
2023/12/14 10:53:31;;;;;;;34.25;14.15;;;6.80;99.90;;;;;;5052995;28;20041;-68
2023/12/14 10:56:00;;;;;;;33.63;13.35;;;6.80;99.90;;;;;;5064764;28;20036;-69
2023/12/14 10:58:26;;;;;;;39.35;13.52;;;6.80;99.90;;;;;;5062168;28;20032;-67
2023/12/14 11:01:01;;;;;;;33.63;14.60;;;6.90;99.90;;;;;;5054224;28;20087;-69
2023/12/14 11:03:32;;;;;;;31.92;12.75;;;6.90;99.90;;;;;;5063503;28;20111;-71
2023/12/14 11:06:00;;;;;;;25.95;11.75;;;6.90;99.90;;;;;;5057555;28;20043;-67
2023/12/14 11:08:26;;;;;;;38.20;13.20;;;6.90;99.90;;;;;;5055900;28;20097;-68
2023/12/14 11:11:10;;;;;;;37.40;14.57;;;7.00;99.90;;;;;;5068434;28;20549;-68
2023/12/14 11:13:38;;;;;;;45.33;16.67;;;7.00;99.90;;;;;;5048597;28;20029;-67
2023/12/14 11:16:04;;;;;;;34.13;12.40;;;7.00;99.90;;;;;;5059045;28;20032;-68
2023/12/14 11:18:30;;;;;;;31.08;12.93;;;7.00;99.90;;;;;;5056711;28;20029;-71
2023/12/14 11:20:59;;;;;;;34.88;13.10;;;7.00;99.90;;;;;;5060750;28;20083;-67
2023/12/14 11:23:29;;;;;;;30.65;12.13;;;7.00;99.90;;;;;;5048847;28;20483;-67
2023/12/14 11:26:03;;;;;;;36.65;12.73;;;7.00;99.90;;;;;;5048564;28;20025;-65
2023/12/14 11:28:30;;;;;;;26.25;10.88;;;7.10;99.90;;;;;;5059673;28;20451;-70
2023/12/14 11:30:56;;;;;;;32.03;12.15;;;7.10;99.90;;;;;;5060640;28;20040;-66
2023/12/14 11:33:21;;;;;;;33.72;12.15;;;7.20;99.90;;;;;;5067631;28;20051;-69
2023/12/14 11:35:47;;;;;;;29.75;12.18;;;7.20;99.90;;;;;;5068200;28;20740;-67
2023/12/14 11:38:13;;;;;;;27.63;11.90;;;7.30;99.90;;;;;;5068806;28;20064;-68
2023/12/14 11:40:42;;;;;;;24.92;10.25;;;7.30;99.90;;;;;;5056107;28;20120;-68
2023/12/14 11:43:09;;;;;;;24.30;9.98;;;7.40;99.90;;;;;;5048958;28;20096;-66
2023/12/14 11:45:39;;;;;;;22.50;9.20;;;7.50;99.90;;;;;;5047909;28;20446;-66
2023/12/14 11:48:06;;;;;;;24.83;9.60;;;7.50;99.90;;;;;;5049004;28;20029;-66
2023/12/14 11:50:33;;;;;;;20.75;9.05;;;7.40;99.90;;;;;;5049250;28;20270;-72
2023/12/14 11:53:00;;;;;;;18.83;8.57;;;7.40;99.90;;;;;;5050968;28;20025;-69
2023/12/14 11:55:27;;;;;;;23.83;8.77;;;7.40;99.90;;;;;;5061967;28;20052;-68
2023/12/14 11:57:53;;;;;;;19.08;8.27;;;7.40;99.90;;;;;;5067424;28;20032;-65
2023/12/14 12:00:24;;;;;;;21.70;9.73;;;7.40;99.90;;;;;;5054142;28;20106;-64
2023/12/14 12:02:49;;;;;;;18.27;8.20;;;7.40;99.90;;;;;;5060262;28;20020;-66
2023/12/14 12:05:18;;;;;;;19.50;8.38;;;7.50;99.90;;;;;;5066614;28;20040;-66
2023/12/14 12:07:44;;;;;;;22.30;8.93;;;7.40;99.90;;;;;;5061507;28;20033;-68
2023/12/14 12:10:10;;;;;;;23.30;9.40;;;7.40;99.90;;;;;;5052705;28;20079;-65
2023/12/14 12:12:37;;;;;;;22.80;10.68;;;7.40;99.90;;;;;;5063698;28;20024;-66
2023/12/14 12:15:03;;;;;;;23.38;10.30;;;7.40;99.90;;;;;;5067188;28;20127;-65
2023/12/14 12:17:29;;;;;;;26.52;10.90;;;7.40;99.90;;;;;;5067831;28;20052;-67
2023/12/14 12:19:55;;;;;;;31.25;10.85;;;7.30;99.90;;;;;;5055505;28;20529;-65
2023/12/14 12:22:20;;;;;;;24.13;10.07;;;7.30;99.90;;;;;;5046902;28;20029;-65
2023/12/14 12:24:46;;;;;;;23.35;10.32;;;7.30;99.90;;;;;;5052184;28;20106;-65
2023/12/14 12:27:12;;;;;;;23.25;10.65;;;7.30;99.90;;;;;;5054569;28;20033;-69
2023/12/14 12:29:37;;;;;;;24.20;10.35;;;7.30;99.90;;;;;;5067533;28;20127;-66
2023/12/14 12:32:04;;;;;;;29.63;11.23;;;7.30;99.90;;;;;;5049274;28;20370;-66
2023/12/14 12:34:29;;;;;;;28.63;11.52;;;7.30;99.90;;;;;;5049986;28;20020;-68
2023/12/14 12:36:57;;;;;;;26.42;11.45;;;7.30;99.90;;;;;;5050320;28;20047;-65
2023/12/14 12:39:23;;;;;;;25.67;11.65;;;7.40;99.90;;;;;;5056487;28;20435;-68